Time;durP1;ratioP1;P1;durP2;ratioP2;P2;SDS_P1;SDS_P2;PMS_P1;PMS_P2;Temp;Humidity;BMP_temperature;BMP_pressure;BME280_temperature;BME280_humidity;BME280_pressure;Samples;Min_cycle;Max_cycle;Signal;HPM_P1;HPM_P2
2023/07/27 00:01:06;;;;;;;12.15;11.45;;;21.00;99.90;;;;;;5030780;28;20029;-74
2023/07/27 00:03:33;;;;;;;25.50;23.90;;;20.90;99.90;;;;;;5031742;28;20359;-73
2023/07/27 00:05:59;;;;;;;18.27;17.08;;;20.90;99.90;;;;;;5030256;28;20025;-73
2023/07/27 00:08:25;;;;;;;10.35;9.65;;;20.90;99.90;;;;;;5030484;28;20061;-74
2023/07/27 00:10:51;;;;;;;12.77;11.98;;;20.90;99.90;;;;;;5030413;28;20048;-73
2023/07/27 00:13:18;;;;;;;9.55;8.98;;;20.90;99.90;;;;;;5031533;28;20030;-73
2023/07/27 00:15:44;;;;;;;12.73;11.82;;;20.90;99.90;;;;;;5029502;28;20048;-73
2023/07/27 00:18:10;;;;;;;10.65;9.95;;;20.90;99.90;;;;;;5030579;28;20033;-73
2023/07/27 00:20:36;;;;;;;11.55;10.75;;;20.90;99.90;;;;;;5031902;28;20040;-73
2023/07/27 00:23:02;;;;;;;10.77;9.93;;;21.00;99.90;;;;;;5035416;28;20418;-73
2023/07/27 00:25:28;;;;;;;12.02;11.23;;;20.90;99.90;;;;;;5035055;28;20038;-73
2023/07/27 00:27:54;;;;;;;12.60;11.70;;;20.90;99.90;;;;;;5035120;28;20426;-72
2023/07/27 00:30:21;;;;;;;12.45;11.65;;;20.90;99.90;;;;;;5034779;28;20030;-74
2023/07/27 00:32:47;;;;;;;7.65;7.10;;;20.90;99.90;;;;;;5033903;28;20379;-73
2023/07/27 00:35:13;;;;;;;8.15;7.55;;;20.90;99.90;;;;;;5017186;28;20064;-74
2023/07/27 00:37:39;;;;;;;8.70;8.10;;;20.90;99.90;;;;;;5035096;28;20482;-74
2023/07/27 00:40:05;;;;;;;9.40;8.80;;;20.90;99.90;;;;;;5033877;28;20038;-73
2023/07/27 00:42:31;;;;;;;10.82;10.23;;;20.80;99.90;;;;;;5034356;28;20025;-73
2023/07/27 00:44:57;;;;;;;8.98;8.18;;;20.80;99.90;;;;;;5034983;28;20374;-74
2023/07/27 00:47:24;;;;;;;12.80;11.68;;;20.80;99.90;;;;;;5034247;28;20025;-73
2023/07/27 00:49:50;;;;;;;10.55;9.77;;;20.80;99.90;;;;;;5034774;28;20410;-73
2023/07/27 00:52:16;;;;;;;11.23;10.43;;;20.80;99.90;;;;;;5034535;28;20026;-74
2023/07/27 00:54:42;;;;;;;10.45;9.45;;;20.80;99.90;;;;;;5034623;28;20407;-73
2023/07/27 00:57:08;;;;;;;7.10;6.60;;;20.90;99.90;;;;;;5032858;28;20041;-74
2023/07/27 00:59:34;;;;;;;7.10;6.50;;;20.80;99.90;;;;;;5033452;28;20367;-74
2023/07/27 01:02:00;;;;;;;7.60;7.10;;;20.80;99.90;;;;;;5032660;28;20037;-74
2023/07/27 01:04:26;;;;;;;8.40;7.80;;;20.80;99.90;;;;;;5033390;28;20360;-74
2023/07/27 01:06:52;;;;;;;8.88;8.25;;;20.80;99.90;;;;;;5034351;28;20040;-73
2023/07/27 01:09:18;;;;;;;7.22;6.63;;;20.90;99.90;;;;;;5034410;28;20045;-73
2023/07/27 01:12:06;;;;;;;6.53;6.13;;;20.80;99.90;;;;;;5032727;28;20468;-73
2023/07/27 01:15:11;;;;;;;7.18;6.22;;;20.70;99.90;;;;;;5034596;28;20105;-73
2023/07/27 01:17:40;;;;;;;10.63;9.73;;;20.70;99.90;;;;;;4956317;28;20039;-73
2023/07/27 01:20:20;;;;;;;7.03;6.57;;;20.70;99.90;;;;;;4973296;28;20050;-74
2023/07/27 01:23:09;;;;;;;6.30;5.75;;;20.70;99.90;;;;;;4976601;28;20034;-73
2023/07/27 01:25:47;;;;;;;10.35;9.75;;;20.60;99.90;;;;;;4977042;28;20083;-73
2023/07/27 01:28:19;;;;;;;8.23;7.03;;;20.60;99.90;;;;;;4992663;28;20042;-74
2023/07/27 01:30:52;;;;;;;7.68;7.07;;;20.60;99.90;;;;;;4991968;28;20039;-73
2023/07/27 01:33:24;;;;;;;11.63;10.68;;;20.50;99.90;;;;;;4975485;28;20038;-73
2023/07/27 01:35:58;;;;;;;9.05;8.23;;;20.50;99.90;;;;;;4976674;28;20026;-74
2023/07/27 01:38:25;;;;;;;8.85;8.23;;;20.50;99.90;;;;;;4977252;28;20034;-74
2023/07/27 01:40:51;;;;;;;15.00;14.02;;;20.50;99.90;;;;;;4975583;28;20420;-74
2023/07/27 01:43:17;;;;;;;12.65;11.68;;;20.60;99.90;;;;;;4992529;28;20034;-73
2023/07/27 01:45:43;;;;;;;10.90;10.02;;;20.50;99.90;;;;;;4974870;28;20043;-73
2023/07/27 01:48:09;;;;;;;11.50;10.50;;;20.50;99.90;;;;;;4975582;28;20035;-73
2023/07/27 01:50:35;;;;;;;10.13;9.38;;;20.60;99.90;;;;;;4975890;28;20042;-73
2023/07/27 01:53:02;;;;;;;12.05;11.20;;;20.60;99.90;;;;;;4990661;28;20037;-74
2023/07/27 01:55:29;;;;;;;12.48;11.70;;;20.50;99.90;;;;;;5028433;28;20041;-73
2023/07/27 01:57:59;;;;;;;11.73;10.80;;;20.60;99.90;;;;;;5028761;28;20037;-72
2023/07/27 02:00:27;;;;;;;9.38;8.77;;;20.60;99.90;;;;;;5024386;28;20510;-73
2023/07/27 02:02:53;;;;;;;12.27;11.38;;;20.60;99.90;;;;;;5003587;28;20033;-74
2023/07/27 02:05:21;;;;;;;9.60;8.93;;;20.60;99.90;;;;;;5010625;28;20038;-74
2023/07/27 02:07:47;;;;;;;10.05;9.35;;;20.60;99.90;;;;;;5011178;28;20033;-74
2023/07/27 02:10:14;;;;;;;11.35;10.75;;;20.50;99.90;;;;;;5011588;28;20045;-73
2023/07/27 02:12:44;;;;;;;9.30;8.70;;;20.40;99.90;;;;;;5010843;28;20030;-73
2023/07/27 02:15:23;;;;;;;8.90;8.30;;;20.40;99.90;;;;;;5010441;28;20033;-73
2023/07/27 02:17:54;;;;;;;8.70;7.97;;;20.40;99.90;;;;;;5010976;28;20383;-73
2023/07/27 02:20:20;;;;;;;8.23;7.57;;;20.40;99.90;;;;;;5010698;28;20026;-74
2023/07/27 02:22:46;;;;;;;8.00;7.43;;;20.50;99.90;;;;;;5010829;28;20030;-73
2023/07/27 02:25:12;;;;;;;8.43;7.68;;;20.40;99.90;;;;;;5010279;28;20041;-74
2023/07/27 02:27:38;;;;;;;13.23;12.25;;;20.30;99.90;;;;;;5010775;28;20037;-73
2023/07/27 02:30:05;;;;;;;12.57;11.75;;;20.30;99.90;;;;;;5010281;28;20046;-72
2023/07/27 02:32:32;;;;;;;10.13;9.43;;;20.40;99.90;;;;;;5011712;28;20033;-74
2023/07/27 02:34:58;;;;;;;10.50;9.73;;;20.40;99.90;;;;;;5011935;28;20025;-74
2023/07/27 02:37:24;;;;;;;7.65;7.15;;;20.30;99.90;;;;;;5012339;28;20022;-73
2023/07/27 02:39:50;;;;;;;7.18;6.78;;;20.30;99.90;;;;;;5012909;28;20061;-73
2023/07/27 02:42:16;;;;;;;6.85;6.35;;;20.30;99.90;;;;;;5012602;28;20032;-73
2023/07/27 02:44:42;;;;;;;6.90;6.50;;;20.40;99.90;;;;;;5012914;28;20038;-74
2023/07/27 02:47:08;;;;;;;7.88;7.38;;;20.40;99.90;;;;;;5012203;28;20034;-74
2023/07/27 02:49:34;;;;;;;8.18;7.57;;;20.40;99.90;;;;;;5011571;28;20057;-74
2023/07/27 02:52:01;;;;;;;9.48;8.88;;;20.40;99.90;;;;;;5012662;28;20049;-74
2023/07/27 02:54:27;;;;;;;10.18;9.38;;;20.40;99.90;;;;;;5012503;28;20383;-74
2023/07/27 02:56:53;;;;;;;18.92;18.02;;;20.40;99.90;;;;;;5012509;28;20037;-74
2023/07/27 02:59:19;;;;;;;12.57;11.82;;;20.30;99.90;;;;;;5012760;28;20026;-73
2023/07/27 03:01:45;;;;;;;11.32;10.63;;;20.30;99.90;;;;;;5010801;28;20041;-74
2023/07/27 03:04:11;;;;;;;8.70;8.20;;;20.40;99.90;;;;;;5011410;28;20030;-74
2023/07/27 03:06:39;;;;;;;10.40;9.88;;;20.40;99.90;;;;;;5012361;28;20033;-73
2023/07/27 03:09:05;;;;;;;11.30;10.65;;;20.40;99.90;;;;;;5011227;28;20034;-74
2023/07/27 03:11:31;;;;;;;9.70;9.10;;;20.40;99.90;;;;;;5011186;28;20399;-73
2023/07/27 03:13:58;;;;;;;9.90;9.30;;;20.50;99.90;;;;;;5012484;28;20026;-73
2023/07/27 03:16:24;;;;;;;11.57;10.88;;;20.50;99.90;;;;;;5011784;28;20380;-74
2023/07/27 03:18:50;;;;;;;11.23;10.55;;;20.60;99.90;;;;;;5011322;28;20029;-73
2023/07/27 03:21:16;;;;;;;12.43;11.73;;;20.50;99.90;;;;;;5011065;28;20061;-74
2023/07/27 03:23:43;;;;;;;11.60;11.00;;;20.50;99.90;;;;;;5010938;28;20022;-74
2023/07/27 03:26:11;;;;;;;15.77;14.95;;;20.40;99.90;;;;;;5012365;28;20053;-74
2023/07/27 03:28:37;;;;;;;20.88;19.70;;;20.40;99.90;;;;;;5011273;28;20100;-73
2023/07/27 03:31:17;;;;;;;14.00;13.30;;;20.40;99.90;;;;;;5011655;28;20376;-74
2023/07/27 03:33:43;;;;;;;18.40;17.40;;;20.40;99.90;;;;;;5011340;28;20033;-74
2023/07/27 03:36:09;;;;;;;12.27;11.68;;;20.20;99.90;;;;;;5012036;28;20044;-74
2023/07/27 03:38:35;;;;;;;14.00;13.23;;;20.20;99.90;;;;;;5010971;28;20510;-72
2023/07/27 03:41:02;;;;;;;9.68;9.20;;;20.10;99.90;;;;;;5010555;28;20048;-74
2023/07/27 03:43:28;;;;;;;13.88;13.18;;;20.10;99.90;;;;;;5012268;28;20022;-74
2023/07/27 03:45:54;;;;;;;15.35;14.45;;;20.00;99.90;;;;;;5010277;28;20479;-74
2023/07/27 03:48:20;;;;;;;9.75;9.25;;;20.00;99.90;;;;;;5011997;28;20034;-74
2023/07/27 03:50:46;;;;;;;9.93;9.43;;;20.10;99.90;;;;;;4990539;28;20377;-74
2023/07/27 03:53:12;;;;;;;11.00;10.40;;;20.10;99.90;;;;;;4991502;28;20041;-74
2023/07/27 03:55:39;;;;;;;11.07;10.45;;;19.90;99.90;;;;;;4996900;28;20391;-73
2023/07/27 03:58:05;;;;;;;10.90;10.27;;;20.00;99.90;;;;;;5016081;28;20052;-74
2023/07/27 04:00:32;;;;;;;10.60;10.05;;;20.00;99.90;;;;;;5014146;28;20026;-74
2023/07/27 04:02:58;;;;;;;8.68;8.15;;;20.00;99.90;;;;;;5015876;28;20041;-74
2023/07/27 04:05:24;;;;;;;8.90;8.40;;;19.90;99.90;;;;;;5014004;28;20030;-74
2023/07/27 04:07:51;;;;;;;8.30;7.85;;;20.00;99.90;;;;;;5014811;28;20036;-74
2023/07/27 04:10:18;;;;;;;9.15;8.68;;;20.00;99.90;;;;;;5015738;28;20054;-74
2023/07/27 04:12:44;;;;;;;9.25;8.75;;;19.90;99.90;;;;;;5014645;28;20411;-74
2023/07/27 04:15:10;;;;;;;9.02;8.55;;;20.00;99.90;;;;;;4997754;28;20034;-74
2023/07/27 04:17:36;;;;;;;10.00;9.50;;;19.90;99.90;;;;;;5015665;28;20045;-74
2023/07/27 04:20:03;;;;;;;8.23;7.82;;;19.80;99.90;;;;;;5014173;28;20411;-74
2023/07/27 04:22:29;;;;;;;8.68;8.18;;;19.80;99.90;;;;;;5020298;28;20486;-74
2023/07/27 04:24:55;;;;;;;8.60;8.00;;;19.70;99.90;;;;;;5014426;28;20045;-74
2023/07/27 04:27:21;;;;;;;7.85;7.45;;;19.70;99.90;;;;;;5015317;28;20034;-74
2023/07/27 04:29:47;;;;;;;8.13;7.45;;;19.70;99.90;;;;;;5014234;28;20034;-74
2023/07/27 04:32:13;;;;;;;8.50;8.07;;;19.80;99.90;;;;;;5013647;28;20435;-74
2023/07/27 04:34:39;;;;;;;8.00;7.57;;;19.80;99.90;;;;;;5013916;28;20044;-74
2023/07/27 04:37:05;;;;;;;8.27;7.78;;;19.90;99.90;;;;;;5014054;28;20470;-74
2023/07/27 04:39:31;;;;;;;8.48;7.97;;;19.90;99.90;;;;;;5015352;28;20045;-74
2023/07/27 04:41:57;;;;;;;8.73;8.02;;;19.90;99.90;;;;;;5015042;28;20021;-73
2023/07/27 04:44:23;;;;;;;8.93;8.43;;;19.90;99.90;;;;;;5015208;28;20030;-74
2023/07/27 04:46:49;;;;;;;9.82;9.30;;;19.90;99.90;;;;;;5013327;28;20060;-73
2023/07/27 04:49:16;;;;;;;8.75;8.15;;;20.00;99.90;;;;;;5014402;28;20496;-74
2023/07/27 04:51:42;;;;;;;8.85;8.35;;;19.90;99.90;;;;;;5014809;28;20038;-74
2023/07/27 04:54:08;;;;;;;10.30;9.60;;;19.90;99.90;;;;;;5015152;28;20040;-74
2023/07/27 04:56:34;;;;;;;11.45;10.75;;;19.90;99.90;;;;;;5014748;28;20030;-74
2023/07/27 04:59:00;;;;;;;10.85;10.25;;;20.00;99.90;;;;;;5014936;28;20041;-74
2023/07/27 05:01:26;;;;;;;9.82;9.32;;;20.00;99.90;;;;;;5013006;28;20038;-74
2023/07/27 05:03:52;;;;;;;8.75;8.05;;;20.00;99.90;;;;;;5013484;28;20026;-74
2023/07/27 05:06:18;;;;;;;8.80;8.10;;;20.00;99.90;;;;;;5014524;28;20037;-74
2023/07/27 05:08:44;;;;;;;8.93;8.23;;;20.00;99.90;;;;;;5013407;28;20022;-73
2023/07/27 05:11:10;;;;;;;9.07;8.57;;;20.10;99.90;;;;;;5013316;28;20034;-73
2023/07/27 05:13:36;;;;;;;9.35;8.85;;;20.20;99.90;;;;;;5014571;28;20038;-73
2023/07/27 05:16:03;;;;;;;11.63;10.88;;;20.10;99.90;;;;;;5012630;28;20041;-73
2023/07/27 05:18:29;;;;;;;11.77;11.18;;;20.10;99.90;;;;;;5014354;28;20026;-74
2023/07/27 05:20:55;;;;;;;10.18;9.57;;;20.10;99.90;;;;;;5014329;28;20041;-74
2023/07/27 05:23:22;;;;;;;11.85;11.05;;;20.10;99.90;;;;;;5013419;28;20026;-73
2023/07/27 05:25:48;;;;;;;14.18;13.13;;;20.10;99.90;;;;;;5013153;28;20494;-74
2023/07/27 05:28:14;;;;;;;13.45;12.65;;;20.10;99.90;;;;;;5013294;28;20060;-74
2023/07/27 05:30:41;;;;;;;14.48;13.68;;;20.20;99.90;;;;;;5012415;28;20052;-73
2023/07/27 05:33:07;;;;;;;12.82;12.02;;;20.10;99.90;;;;;;5012865;28;20029;-74
2023/07/27 05:35:33;;;;;;;11.60;10.80;;;20.00;99.90;;;;;;5013883;28;20037;-74
2023/07/27 05:37:59;;;;;;;10.80;10.02;;;20.00;99.90;;;;;;5014279;28;20026;-73
2023/07/27 05:40:26;;;;;;;9.20;8.50;;;19.80;99.90;;;;;;5014059;28;20025;-74
2023/07/27 05:42:52;;;;;;;10.48;9.77;;;19.80;99.90;;;;;;5014145;28;20025;-73
2023/07/27 05:45:18;;;;;;;9.93;9.20;;;19.90;99.90;;;;;;5013381;28;20037;-73
2023/07/27 05:47:44;;;;;;;9.05;8.45;;;19.90;99.90;;;;;;5012616;28;20026;-74
2023/07/27 05:50:11;;;;;;;9.15;8.48;;;19.90;99.90;;;;;;5013374;28;20050;-74
2023/07/27 05:52:37;;;;;;;9.15;8.60;;;20.00;99.90;;;;;;4994491;28;20034;-73
2023/07/27 05:55:03;;;;;;;14.32;13.52;;;19.80;99.90;;;;;;4994336;28;20069;-74
2023/07/27 05:57:29;;;;;;;13.57;12.55;;;19.80;99.90;;;;;;5012915;28;20026;-74
2023/07/27 05:59:55;;;;;;;11.82;11.10;;;19.70;99.90;;;;;;5013735;28;20364;-74
2023/07/27 06:02:21;;;;;;;12.48;11.57;;;19.60;99.90;;;;;;5011495;28;20037;-74
2023/07/27 06:04:48;;;;;;;21.92;20.55;;;19.60;99.90;;;;;;5013683;28;20360;-74
2023/07/27 06:07:14;;;;;;;21.70;20.40;;;19.60;99.90;;;;;;5013611;28;20046;-73
2023/07/27 06:09:40;;;;;;;14.02;12.93;;;19.60;99.90;;;;;;5013671;28;20044;-74
2023/07/27 06:12:11;;;;;;;8.73;8.13;;;19.60;99.90;;;;;;5012120;28;20026;-74
2023/07/27 06:14:41;;;;;;;8.93;8.23;;;19.60;99.90;;;;;;5012484;28;20390;-73
2023/07/27 06:17:07;;;;;;;8.75;8.15;;;19.70;99.90;;;;;;5012588;28;20471;-74
2023/07/27 06:19:33;;;;;;;10.43;9.52;;;19.80;99.90;;;;;;5011934;28;20045;-73
2023/07/27 06:21:59;;;;;;;10.40;9.50;;;19.80;99.90;;;;;;5013172;28;20030;-73
2023/07/27 06:24:25;;;;;;;13.73;12.80;;;19.90;99.90;;;;;;5012147;28;20041;-74
2023/07/27 06:26:51;;;;;;;13.45;12.43;;;20.00;99.90;;;;;;5011841;28;20034;-74
2023/07/27 06:29:18;;;;;;;14.60;13.68;;;20.10;99.90;;;;;;5012134;28;20055;-74
2023/07/27 06:31:44;;;;;;;11.32;10.63;;;20.30;99.90;;;;;;5011035;28;20491;-74
2023/07/27 06:34:10;;;;;;;11.00;10.20;;;20.40;99.90;;;;;;5012003;28;20037;-74
2023/07/27 06:36:36;;;;;;;10.63;9.93;;;20.40;99.90;;;;;;5011734;28;20038;-73
2023/07/27 06:39:02;;;;;;;10.02;9.30;;;20.50;99.90;;;;;;5013211;28;20033;-73
2023/07/27 06:41:29;;;;;;;10.40;9.80;;;20.50;99.90;;;;;;5012822;28;20041;-73
2023/07/27 06:43:55;;;;;;;11.00;10.10;;;20.60;99.90;;;;;;5013014;28;20030;-74
2023/07/27 06:46:21;;;;;;;10.65;9.90;;;20.60;99.90;;;;;;5011923;28;20038;-74
2023/07/27 06:48:47;;;;;;;11.25;10.30;;;20.70;99.90;;;;;;5012828;28;20022;-73
2023/07/27 06:51:13;;;;;;;10.98;10.27;;;20.80;99.90;;;;;;5012547;28;20042;-73
2023/07/27 06:53:39;;;;;;;13.13;12.13;;;20.80;99.90;;;;;;5012848;28;20030;-74
2023/07/27 06:56:05;;;;;;;12.48;11.57;;;20.90;99.90;;;;;;5012567;28;20386;-73
2023/07/27 06:58:32;;;;;;;12.30;11.52;;;21.00;99.90;;;;;;5012853;28;20025;-74
2023/07/27 07:00:58;;;;;;;14.27;13.27;;;21.10;99.90;;;;;;5010643;28;20089;-74
2023/07/27 07:03:24;;;;;;;14.68;13.77;;;21.20;99.90;;;;;;5011524;28;20475;-74
2023/07/27 07:05:53;;;;;;;18.17;16.98;;;21.20;99.90;;;;;;5012565;28;20117;-73
2023/07/27 07:08:19;;;;;;;17.13;16.02;;;21.30;99.90;;;;;;5012849;28;20029;-74
2023/07/27 07:10:45;;;;;;;20.50;19.05;;;21.40;99.90;;;;;;5011086;28;20041;-74
2023/07/27 07:13:12;;;;;;;19.58;18.23;;;21.40;99.90;;;;;;5011524;28;20022;-74
2023/07/27 07:15:38;;;;;;;17.67;16.45;;;21.30;99.90;;;;;;5010215;28;20041;-73
2023/07/27 07:18:04;;;;;;;15.05;13.90;;;21.20;99.90;;;;;;4994992;28;20037;-74
2023/07/27 07:20:30;;;;;;;14.27;13.27;;;21.00;99.90;;;;;;5012439;28;20036;-74
2023/07/27 07:22:56;;;;;;;12.05;11.13;;;21.00;99.90;;;;;;5011363;28;20038;-74
2023/07/27 07:25:22;;;;;;;13.93;12.73;;;20.90;99.90;;;;;;5012168;28;20494;-74
2023/07/27 07:27:48;;;;;;;10.90;10.10;;;20.90;99.90;;;;;;5011400;28;20046;-74
2023/07/27 07:30:14;;;;;;;10.60;9.80;;;20.90;99.90;;;;;;5009276;28;20038;-73
2023/07/27 07:32:40;;;;;;;10.15;9.27;;;20.80;99.90;;;;;;5012488;28;20026;-74
2023/07/27 07:35:07;;;;;;;9.70;9.00;;;20.80;99.90;;;;;;5012377;28;20395;-74
2023/07/27 07:37:33;;;;;;;10.05;9.25;;;20.80;99.90;;;;;;5010752;28;20098;-74
2023/07/27 07:39:59;;;;;;;10.40;9.70;;;20.80;99.90;;;;;;5012400;28;20406;-74
2023/07/27 07:42:25;;;;;;;11.95;10.85;;;20.80;99.90;;;;;;5010794;28;20033;-74
2023/07/27 07:44:51;;;;;;;11.20;10.40;;;20.80;99.90;;;;;;5012009;28;20498;-74
2023/07/27 07:47:17;;;;;;;11.70;10.90;;;20.70;99.90;;;;;;5011611;28;20034;-74
2023/07/27 07:49:43;;;;;;;11.70;11.00;;;20.80;99.90;;;;;;5010715;28;20498;-74
2023/07/27 07:52:09;;;;;;;11.15;10.45;;;20.80;99.90;;;;;;5010681;28;20042;-73
2023/07/27 07:54:35;;;;;;;12.20;11.35;;;20.90;99.90;;;;;;5012638;28;20372;-73
2023/07/27 07:57:02;;;;;;;15.70;14.60;;;21.20;99.90;;;;;;5010773;28;20464;-74
2023/07/27 07:59:28;;;;;;;14.95;13.95;;;21.50;99.90;;;;;;5011835;28;20033;-73
2023/07/27 08:01:54;;;;;;;17.08;15.77;;;21.60;99.90;;;;;;5011503;28;20042;-74
2023/07/27 08:04:20;;;;;;;18.63;17.45;;;21.70;99.90;;;;;;5012186;28;20030;-74
2023/07/27 08:06:46;;;;;;;17.52;16.40;;;21.80;99.90;;;;;;5010604;28;20029;-73
2023/07/27 08:09:12;;;;;;;18.70;17.40;;;21.80;99.90;;;;;;5011120;28;20022;-74
2023/07/27 08:11:41;;;;;;;20.65;19.27;;;21.80;99.90;;;;;;5010559;28;20518;-73
2023/07/27 08:14:08;;;;;;;23.08;21.58;;;21.80;99.90;;;;;;5010329;28;20490;-73
2023/07/27 08:16:34;;;;;;;21.15;19.77;;;21.90;99.90;;;;;;5011379;28;20045;-74
2023/07/27 08:19:00;;;;;;;22.30;20.85;;;21.90;99.90;;;;;;5010805;28;20037;-74
2023/07/27 08:21:28;;;;;;;21.52;20.17;;;22.00;99.90;;;;;;5011854;28;20034;-74
2023/07/27 08:23:54;;;;;;;24.23;22.80;;;22.00;99.90;;;;;;5011999;28;20450;-75
2023/07/27 08:26:20;;;;;;;26.35;24.65;;;22.10;99.90;;;;;;5011248;28;20026;-74
2023/07/27 08:28:47;;;;;;;30.95;29.05;;;22.10;99.90;;;;;;5010802;28;20026;-74
2023/07/27 08:31:14;;;;;;;30.83;28.83;;;22.00;99.90;;;;;;5011216;28;20411;-74
2023/07/27 08:33:40;;;;;;;28.75;27.08;;;22.00;99.90;;;;;;5010703;28;20034;-74
2023/07/27 08:36:06;;;;;;;22.73;21.33;;;21.90;99.90;;;;;;5010118;28;20042;-74
2023/07/27 08:38:32;;;;;;;24.05;22.65;;;22.00;99.90;;;;;;5011969;28;20033;-74
2023/07/27 08:40:59;;;;;;;21.08;19.67;;;21.90;99.90;;;;;;5011211;28;20074;-74
2023/07/27 08:43:26;;;;;;;20.60;19.10;;;21.80;99.90;;;;;;4997124;28;20042;-74
2023/07/27 08:45:52;;;;;;;20.20;18.80;;;21.80;99.90;;;;;;5013477;28;20041;-75
2023/07/27 08:48:18;;;;;;;18.77;17.40;;;21.80;99.90;;;;;;4997803;28;20049;-75
2023/07/27 08:50:46;;;;;;;18.02;16.65;;;21.80;99.90;;;;;;5014720;28;20432;-74
2023/07/27 08:53:13;;;;;;;16.92;15.82;;;21.80;99.90;;;;;;5014066;28;20034;-74
2023/07/27 08:55:39;;;;;;;19.25;17.65;;;21.90;99.90;;;;;;5014472;28;20105;-75
2023/07/27 08:58:06;;;;;;;18.83;17.38;;;21.90;99.90;;;;;;5013519;28;20467;-73
2023/07/27 09:00:32;;;;;;;21.02;19.58;;;22.00;99.90;;;;;;5014137;28;20038;-74
2023/07/27 09:03:01;;;;;;;27.20;25.73;;;21.90;99.90;;;;;;5014703;28;20082;-75
2023/07/27 09:05:40;;;;;;;25.95;24.45;;;22.00;99.90;;;;;;5013457;28;20021;-75
2023/07/27 09:08:11;;;;;;;29.30;27.40;;;22.20;99.90;;;;;;5014839;28;20387;-74
2023/07/27 09:10:38;;;;;;;25.85;24.08;;;22.30;99.90;;;;;;4993664;28;20057;-73
2023/07/27 09:13:04;;;;;;;28.13;26.52;;;22.30;99.90;;;;;;4994007;28;20490;-76
2023/07/27 09:15:30;;;;;;;26.33;24.52;;;22.30;99.90;;;;;;4995354;28;20495;-75
2023/07/27 09:17:58;;;;;;;26.25;24.67;;;22.20;99.90;;;;;;5013480;28;20041;-73
2023/07/27 09:20:25;;;;;;;22.35;20.63;;;22.00;99.90;;;;;;5013007;28;20042;-75
2023/07/27 09:22:51;;;;;;;22.80;21.27;;;21.90;99.90;;;;;;5014613;28;20463;-74
2023/07/27 09:25:23;;;;;;;19.20;17.98;;;21.80;99.90;;;;;;5014192;28;20038;-74
2023/07/27 09:27:58;;;;;;;18.65;17.25;;;21.90;99.90;;;;;;5014679;28;20485;-74
2023/07/27 09:30:24;;;;;;;18.45;17.13;;;21.90;99.90;;;;;;5013499;28;20050;-75
2023/07/27 09:32:51;;;;;;;18.95;17.75;;;22.10;99.90;;;;;;5014419;28;20037;-74
2023/07/27 09:35:18;;;;;;;19.73;18.52;;;22.10;99.90;;;;;;5012887;28;20033;-74
2023/07/27 09:37:45;;;;;;;21.05;19.52;;;22.10;99.90;;;;;;5012996;28;20487;-75
2023/07/27 09:40:13;;;;;;;18.80;17.42;;;22.00;99.90;;;;;;4996103;28;20049;-74
2023/07/27 09:42:41;;;;;;;19.52;18.02;;;22.10;99.90;;;;;;5012855;28;20026;-75
2023/07/27 09:45:08;;;;;;;18.48;17.27;;;22.10;99.90;;;;;;5012710;28;20022;-75
2023/07/27 09:47:34;;;;;;;19.25;18.00;;;22.10;99.90;;;;;;5013942;28;20022;-74
2023/07/27 09:50:01;;;;;;;19.90;18.08;;;22.10;99.90;;;;;;5013727;28;20046;-75
2023/07/27 09:52:28;;;;;;;19.50;18.30;;;22.20;99.90;;;;;;5013758;28;20034;-75
2023/07/27 09:54:55;;;;;;;29.60;27.90;;;22.30;99.90;;;;;;5011718;28;20026;-75
2023/07/27 09:57:21;;;;;;;27.15;25.65;;;22.40;99.90;;;;;;5012462;28;20054;-75
2023/07/27 09:59:47;;;;;;;28.98;27.38;;;22.50;99.90;;;;;;5014081;28;20395;-75
2023/07/27 10:02:13;;;;;;;28.35;26.75;;;22.40;99.90;;;;;;5013217;28;20045;-74
2023/07/27 10:04:43;;;;;;;26.80;25.20;;;22.50;99.90;;;;;;5013655;28;20034;-74
2023/07/27 10:07:09;;;;;;;24.70;23.40;;;22.50;99.90;;;;;;5012370;28;20033;-74
2023/07/27 10:09:36;;;;;;;26.55;24.88;;;22.60;99.90;;;;;;5012349;28;20030;-75
2023/07/27 10:12:04;;;;;;;25.67;24.27;;;22.60;99.90;;;;;;5012031;28;20037;-74
2023/07/27 10:14:31;;;;;;;26.92;25.33;;;22.80;99.90;;;;;;5012366;28;20049;-74
2023/07/27 10:17:02;;;;;;;27.95;26.30;;;22.80;99.90;;;;;;5011543;28;20479;-75
2023/07/27 10:19:56;;;;;;;26.80;25.05;;;22.80;99.90;;;;;;5012282;28;20030;-74
2023/07/27 10:22:22;;;;;;;26.90;25.30;;;22.80;99.90;;;;;;4994482;28;20045;-75
2023/07/27 10:24:56;;;;;;;27.83;26.15;;;22.80;99.90;;;;;;5011990;28;20033;-74
2023/07/27 10:27:22;;;;;;;28.27;26.58;;;22.80;99.90;;;;;;5011931;28;20034;-74
2023/07/27 10:29:53;;;;;;;23.83;22.45;;;22.70;99.90;;;;;;5013402;28;20033;-75
2023/07/27 10:32:19;;;;;;;31.83;29.77;;;22.80;99.90;;;;;;5011375;28;20057;-75
2023/07/27 10:34:49;;;;;;;43.22;40.90;;;22.70;99.90;;;;;;5011860;28;20471;-75
2023/07/27 10:37:16;;;;;;;45.63;43.25;;;22.60;99.90;;;;;;5011225;28;20053;-75
2023/07/27 10:39:51;;;;;;;52.92;50.22;;;22.60;99.90;;;;;;5013184;28;20391;-75
2023/07/27 10:42:22;;;;;;;57.17;54.28;;;22.70;99.90;;;;;;5011664;28;20041;-75
2023/07/27 10:44:52;;;;;;;45.90;43.30;;;22.70;99.90;;;;;;5011881;28;20029;-75
2023/07/27 10:47:37;;;;;;;43.28;41.13;;;22.80;99.90;;;;;;5012524;28;20065;-74
2023/07/27 10:50:03;;;;;;;41.80;39.60;;;22.90;99.90;;;;;;5011332;28;20053;-75
2023/07/27 10:52:31;;;;;;;40.33;38.25;;;23.10;99.90;;;;;;5010794;28;20049;-75
2023/07/27 10:54:59;;;;;;;44.20;41.85;;;23.20;99.90;;;;;;5011542;28;20042;-75
2023/07/27 10:57:29;;;;;;;49.90;47.03;;;23.20;99.90;;;;;;5011352;28;20030;-75
2023/07/27 10:59:55;;;;;;;41.40;39.25;;;23.30;99.90;;;;;;5011819;28;20061;-74
2023/07/27 11:02:32;;;;;;;44.70;42.20;;;23.30;99.90;;;;;;5010784;28;20608;-75
2023/07/27 11:05:06;;;;;;;36.35;34.50;;;23.30;99.90;;;;;;5011638;28;20097;-75
2023/07/27 11:07:36;;;;;;;36.70;34.67;;;23.40;99.90;;;;;;4994613;28;20565;-75
2023/07/27 11:10:09;;;;;;;39.13;37.08;;;23.60;99.90;;;;;;5011420;28;20498;-74
2023/07/27 11:12:51;;;;;;;35.88;33.95;;;23.70;99.90;;;;;;4991295;28;20053;-75
2023/07/27 11:15:19;;;;;;;41.95;39.70;;;23.80;99.90;;;;;;5008542;28;20500;-74
2023/07/27 11:17:45;;;;;;;35.30;33.45;;;23.90;99.90;;;;;;5011488;28;20460;-75
2023/07/27 11:20:12;;;;;;;28.13;26.63;;;23.90;99.90;;;;;;5011323;28;20029;-75
2023/07/27 11:22:38;;;;;;;31.75;30.13;;;23.80;99.90;;;;;;5012373;28;20105;-74
2023/07/27 11:25:04;;;;;;;28.23;26.50;;;23.60;99.90;;;;;;5011410;28;20033;-75
2023/07/27 11:27:30;;;;;;;30.88;29.05;;;23.60;99.90;;;;;;5012375;28;20057;-75
2023/07/27 11:30:00;;;;;;;32.40;30.73;;;23.50;99.90;;;;;;5011297;28;20029;-75
2023/07/27 11:32:29;;;;;;;37.38;35.35;;;23.40;99.90;;;;;;5010034;28;20056;-75
2023/07/27 11:34:55;;;;;;;38.17;36.22;;;23.40;99.90;;;;;;5010917;28;20022;-75
2023/07/27 11:37:25;;;;;;;36.67;34.70;;;23.40;99.90;;;;;;5010879;28;20049;-75
2023/07/27 11:39:51;;;;;;;35.20;33.22;;;23.50;99.90;;;;;;5011293;28;20475;-75
2023/07/27 11:42:25;;;;;;;28.02;26.48;;;23.50;99.90;;;;;;5012036;28;20506;-75
2023/07/27 11:44:52;;;;;;;27.00;25.48;;;23.60;99.90;;;;;;5012329;28;20033;-75
2023/07/27 11:47:18;;;;;;;25.23;23.70;;;23.60;99.90;;;;;;5010474;28;20042;-74
2023/07/27 11:49:44;;;;;;;23.40;22.13;;;23.60;99.90;;;;;;5010522;28;20045;-75
2023/07/27 11:52:10;;;;;;;24.23;22.75;;;23.50;99.90;;;;;;5010655;28;20042;-75
2023/07/27 11:54:38;;;;;;;24.85;23.50;;;23.50;99.90;;;;;;5010989;28;20057;-74
2023/07/27 11:57:04;;;;;;;22.73;21.25;;;23.40;99.90;;;;;;5010985;28;20375;-75
2023/07/27 11:59:31;;;;;;;24.23;22.75;;;23.40;99.90;;;;;;5010967;28;20471;-75
2023/07/27 12:01:57;;;;;;;27.48;25.92;;;23.40;99.90;;;;;;5010486;28;20508;-75
2023/07/27 12:04:24;;;;;;;24.17;22.73;;;23.40;99.90;;;;;;5010589;28;20033;-75
2023/07/27 12:06:50;;;;;;;30.45;28.80;;;23.40;99.90;;;;;;4994141;28;20044;-75
2023/07/27 12:09:16;;;;;;;25.27;23.88;;;23.50;99.90;;;;;;5012270;28;20025;-74
2023/07/27 12:11:43;;;;;;;27.80;26.02;;;23.70;99.90;;;;;;5010553;28;20052;-75
2023/07/27 12:14:10;;;;;;;28.17;26.60;;;23.70;99.90;;;;;;5010900;28;20026;-75
2023/07/27 12:16:37;;;;;;;23.40;22.17;;;23.80;99.90;;;;;;5010620;28;20049;-74
2023/07/27 12:19:06;;;;;;;23.13;21.85;;;24.00;99.90;;;;;;5014175;28;20033;-75
2023/07/27 12:21:32;;;;;;;23.95;22.70;;;24.10;99.90;;;;;;5015329;28;20029;-75
2023/07/27 12:24:02;;;;;;;22.23;21.02;;;24.30;99.90;;;;;;5015614;28;20033;-75
2023/07/27 12:26:29;;;;;;;23.55;22.30;;;24.30;99.90;;;;;;5014306;28;20041;-75
2023/07/27 12:28:55;;;;;;;22.55;21.15;;;24.30;99.90;;;;;;5015612;28;20034;-75
2023/07/27 12:31:21;;;;;;;24.13;22.88;;;24.30;99.90;;;;;;5013401;28;20053;-74
2023/07/27 12:33:47;;;;;;;22.80;21.60;;;24.30;99.90;;;;;;5015295;28;20459;-75